createdAt,value
2023-02-13T10:14:47.285Z,99.90
2023-02-13T10:19:45.674Z,99.90
2023-02-13T10:24:43.239Z,99.90
2023-02-13T10:30:03.126Z,99.90
2023-02-13T10:35:00.413Z,99.90
2023-02-13T10:39:55.005Z,99.90
2023-02-13T10:45:15.117Z,99.90
2023-02-13T10:50:21.082Z,99.90
2023-02-13T10:55:30.689Z,99.90
2023-02-13T11:00:31.475Z,99.90
2023-02-13T11:05:29.849Z,99.90
2023-02-13T11:10:25.474Z,98.90
2023-02-13T11:15:26.968Z,97.70
2023-02-13T11:20:29.345Z,97.20
2023-02-13T11:25:25.165Z,97.10
2023-02-13T11:30:34.642Z,96.40
2023-02-13T11:35:30.675Z,95.80
2023-02-13T11:40:33.185Z,95.00
2023-02-13T11:45:27.910Z,94.30
2023-02-13T11:50:27.466Z,93.00
2023-02-13T11:55:31.169Z,92.00
2023-02-13T12:00:34.053Z,91.50
2023-02-13T12:05:30.023Z,90.00
2023-02-13T12:10:26.396Z,86.40
2023-02-13T12:15:23.233Z,86.70
2023-02-13T12:20:18.496Z,87.70
2023-02-13T12:25:40.661Z,84.60
2023-02-13T12:31:16.344Z,82.50
2023-02-13T12:36:17.472Z,80.50
2023-02-13T12:41:20.576Z,78.80
2023-02-13T12:46:21.870Z,79.10
2023-02-13T12:51:30.229Z,76.80
2023-02-13T12:56:41.723Z,74.70
2023-02-13T13:02:14.922Z,75.00
2023-02-13T13:07:30.797Z,74.40
2023-02-13T13:12:36.606Z,72.30
2023-02-13T13:17:44.927Z,71.60
2023-02-13T13:22:46.126Z,70.00
2023-02-13T13:27:45.645Z,69.00
2023-02-13T13:32:40.114Z,66.00
2023-02-13T13:37:39.149Z,63.30
2023-02-13T13:42:41.048Z,62.80
2023-02-13T13:47:49.565Z,60.90
2023-02-13T13:53:13.702Z,59.00
2023-02-13T13:58:07.353Z,58.20
2023-02-13T14:03:26.272Z,57.50
2023-02-13T14:09:07.599Z,57.10
2023-02-13T14:14:01.971Z,56.50
2023-02-13T14:18:57.344Z,55.80
2023-02-13T14:23:53.606Z,55.60
2023-02-13T14:29:06.597Z,55.60
2023-02-13T14:34:03.793Z,54.40
2023-02-13T14:38:58.480Z,54.70
2023-02-13T14:43:54.804Z,54.50
2023-02-13T14:48:56.889Z,54.30
2023-02-13T14:53:55.971Z,54.40
2023-02-13T14:58:53.943Z,54.80
2023-02-13T15:03:50.005Z,55.70
2023-02-13T15:08:49.564Z,61.00
2023-02-13T15:13:46.016Z,66.80
2023-02-13T15:18:44.477Z,70.70
2023-02-13T15:23:38.218Z,73.10
2023-02-13T15:28:32.132Z,75.10
2023-02-13T15:33:28.970Z,76.50
2023-02-13T15:38:26.516Z,77.90
2023-02-13T15:43:25.275Z,79.30
2023-02-13T15:48:19.512Z,82.40
2023-02-13T15:53:19.227Z,84.30
2023-02-13T15:58:15.191Z,85.50
2023-02-13T16:03:15.435Z,87.10
2023-02-13T16:08:31.492Z,88.80
2023-02-13T16:13:25.300Z,90.10
2023-02-13T16:18:21.665Z,90.80
2023-02-13T16:23:18.596Z,91.30
2023-02-13T16:28:20.157Z,92.00
2023-02-13T16:33:25.910Z,92.50
2023-02-13T16:38:35.071Z,93.00
2023-02-13T16:43:38.883Z,94.00
2023-02-13T16:48:32.407Z,94.60
2023-02-13T16:53:25.940Z,95.10
2023-02-13T16:58:19.861Z,95.70
2023-02-13T17:03:14.866Z,96.60
2023-02-13T17:08:09.360Z,97.20
2023-02-13T17:13:11.821Z,97.70
